Terminal Aerodrome Forecast
Issued by NWS

Home | Current Version | Previous Version | Text Only | Print | Product List | Glossary On
Versions: 1 2 3 4 5 6 7 8 9 10 11 12 13 14 15 16 17 18 19 20 21 22 23 24 25 26 27 28 29 30 31 32 33 34 35 36 37 38 39 40 41 42 43 44 45 46 47 48 49 50
000
FTUS42 KJAX 301123
TAFSGJ
TAF
KSGJ 301123Z 3012/3112 25006KT P6SM SCT025 BKN250
      TEMPO 3012/3013 5SM BR FEW010
     FM301600 10009KT P6SM VCSH SCT025 BKN035
     FM301900 13012KT P6SM VCTS BKN035CB BKN070
     FM310300 24006KT P6SM SCT025 SCT050 BKN200=

USA.gov is the U.S. government's official web portal to all federal, state and local government web resources and services.